Terminal Aerodrome Forecast
Issued by NWS Lake Charles, LA

Current Version | Previous Version | Text Only | Print | Product List | Glossary On
Versions: 1 2 3 4 5 6 7 8 9 10 11 12 13 14 15 16 17
000
FTUS44 KLCH 180520
TAFARA
TAF
KARA 180520Z 1806/1906 23003KT P6SM SKC
     FM181500 26006KT P6SM SCT030
     FM181800 29007KT P6SM VCTS SCT040CB SCT250
     FM190100 VRB03KT P6SM FEW050=

USA.gov is the U.S. government's official web portal to all federal, state and local government web resources and services.